Time;durP1;ratioP1;P1;durP2;ratioP2;P2;SDS_P1;SDS_P2;PMS_P1;PMS_P2;Temp;Humidity;BMP_temperature;BMP_pressure;BME280_temperature;BME280_humidity;BME280_pressure;Samples;Min_cycle;Max_cycle;Signal;HPM_P1;HPM_P2
2023/10/08 00:01:42;;;;;;;4.40;3.00;;;;;;;9.52;100.00;97332.52;110052;1241;60540;-59
2023/10/08 00:04:18;;;;;;;5.60;3.50;;;;;;;9.56;100.00;97329.91;110068;1244;60488;-59
2023/10/08 00:06:52;;;;;;;6.90;3.50;;;;;;;9.60;100.00;97329.30;110114;1241;71458;-60
2023/10/08 00:09:25;;;;;;;6.20;3.90;;;;;;;9.62;100.00;97329.16;110081;1242;68844;-60
2023/10/08 00:12:01;;;;;;;7.80;4.50;;;;;;;9.66;100.00;97329.77;110117;1244;69184;-60
2023/10/08 00:14:44;;;;;;;5.40;3.70;;;;;;;9.72;100.00;97322.55;110088;1244;60545;-61
2023/10/08 00:17:20;;;;;;;6.30;3.90;;;;;;;9.79;100.00;97322.05;110094;1244;60487;-61
2023/10/08 00:19:52;;;;;;;5.30;3.60;;;;;;;9.87;100.00;97318.19;110015;1241;70254;-62
2023/10/08 00:22:25;;;;;;;5.60;3.80;;;;;;;9.96;100.00;97323.30;110081;1244;68361;-62
2023/10/08 00:24:58;;;;;;;6.40;4.40;;;;;;;10.04;100.00;97315.70;110033;1245;69395;-59
2023/10/08 00:27:38;;;;;;;5.50;3.80;;;;;;;10.11;100.00;97314.33;110117;1245;60500;-60
2023/10/08 00:30:17;;;;;;;5.80;3.10;;;;;;;10.18;100.00;97300.58;110086;1244;60484;-59
2023/10/08 00:32:52;;;;;;;5.90;3.00;;;;;;;10.25;100.00;97300.27;110113;1244;71493;-59
2023/10/08 00:35:24;;;;;;;5.30;3.60;;;;;;;10.31;100.00;97302.63;110101;1241;68498;-60
2023/10/08 00:38:00;;;;;;;4.60;3.30;;;;;;;10.37;99.99;97299.81;110033;1241;69093;-59
2023/10/08 00:40:40;;;;;;;5.00;3.50;;;;;;;10.44;99.28;97294.20;110113;1241;60535;-59
2023/10/08 00:43:36;;;;;;;6.00;4.10;;;;;;;10.54;97.46;97295.38;110085;1244;60517;-59
2023/10/08 00:46:30;;;;;;;6.20;3.50;;;;;;;10.64;99.21;97292.73;110131;1244;72191;-59
2023/10/08 00:49:17;;;;;;;6.90;4.40;;;;;;;10.74;98.18;97290.23;110144;1244;69160;-60
2023/10/08 00:52:40;;;;;;;5.70;4.00;;;;;;;10.85;96.79;97281.17;110065;1241;69534;-60
2023/10/08 00:57:42;;;;;;;5.60;3.70;;;;;;;11.05;97.09;97270.23;110058;1241;60435;-59
2023/10/08 01:00:21;;;;;;;5.20;4.00;;;;;;;11.13;94.24;97264.42;110077;1244;72280;-60
2023/10/08 01:03:01;;;;;;;6.20;4.00;;;;;;;11.20;98.37;97262.66;110084;1244;69096;-59
2023/10/08 01:05:48;;;;;;;4.50;3.50;;;;;;;11.25;98.45;97259.99;110100;1243;69404;-60
2023/10/08 01:08:36;;;;;;;5.50;3.70;;;;;;;11.28;98.12;97259.56;110074;1241;60474;-60
2023/10/08 01:11:26;;;;;;;6.60;4.70;;;;;;;11.32;99.07;97252.13;110116;1244;60486;-60
2023/10/08 01:13:58;;;;;;;5.40;3.70;;;;;;;11.34;97.93;97250.23;110113;1241;71464;-60
2023/10/08 01:16:34;;;;;;;6.40;3.90;;;;;;;11.36;99.81;97239.90;110110;1244;69120;-60
2023/10/08 01:19:12;;;;;;;7.40;4.90;;;;;;;11.39;95.98;97231.17;110077;1241;68372;-60
2023/10/08 01:21:48;;;;;;;6.00;4.20;;;;;;;11.39;96.41;97224.20;109793;1244;60655;-61
2023/10/08 01:24:24;;;;;;;8.70;4.70;;;;;;;11.39;99.76;97217.54;110080;1242;60487;-60
2023/10/08 01:26:59;;;;;;;6.30;4.00;;;;;;;11.40;98.67;97213.98;110072;1241;72201;-60
2023/10/08 01:29:36;;;;;;;5.80;4.00;;;;;;;11.41;96.00;97216.13;110071;1244;69187;-60
2023/10/08 01:32:11;;;;;;;5.90;3.50;;;;;;;11.41;97.90;97222.74;110065;1242;68829;-60
2023/10/08 01:34:47;;;;;;;6.40;4.30;;;;;;;11.42;96.56;97215.38;110073;1244;60493;-60
2023/10/08 01:37:19;;;;;;;5.90;3.90;;;;;;;11.42;96.11;97214.85;110095;1244;60451;-59
2023/10/08 01:39:52;;;;;;;5.40;3.40;;;;;;;11.43;94.35;97204.45;110089;1244;71661;-60
2023/10/08 01:42:28;;;;;;;5.20;3.90;;;;;;;11.46;94.84;97204.89;110081;1244;69921;-60
2023/10/08 01:45:02;;;;;;;4.60;3.10;;;;;;;11.51;97.38;97204.41;109954;1241;68659;-60
2023/10/08 01:47:32;;;;;;;5.00;3.60;;;;;;;11.53;99.56;97197.41;110064;1241;60566;-60
2023/10/08 01:50:17;;;;;;;4.90;3.70;;;;;;;11.54;99.28;97192.07;110110;1248;60522;-59
2023/10/08 01:52:52;;;;;;;6.50;4.30;;;;;;;11.54;100.00;97193.46;110088;1245;72186;-59
2023/10/08 01:55:26;;;;;;;6.30;3.60;;;;;;;11.55;98.68;97203.70;110062;1244;69267;-59
2023/10/08 01:57:58;;;;;;;6.10;4.30;;;;;;;11.56;98.76;97194.39;110012;1244;69345;-60
2023/10/08 02:00:36;;;;;;;7.10;4.50;;;;;;;11.56;99.36;97198.89;110151;1241;60593;-60
2023/10/08 02:03:12;;;;;;;6.80;4.70;;;;;;;11.57;96.58;97201.45;110109;1244;60510;-60
2023/10/08 02:05:48;;;;;;;5.90;4.20;;;;;;;11.59;96.26;97195.86;110183;1241;71484;-59
2023/10/08 02:08:21;;;;;;;7.00;4.60;;;;;;;11.62;95.12;97195.15;110198;1241;68553;-60
2023/10/08 02:10:52;;;;;;;6.40;4.00;;;;;;;11.65;94.54;97200.64;110127;1244;69642;-60
2023/10/08 02:13:24;;;;;;;6.40;4.80;;;;;;;11.70;95.08;97196.94;109949;1244;60527;-60
2023/10/08 02:15:56;;;;;;;7.70;4.60;;;;;;;11.76;92.77;97196.30;110132;1241;60617;-60
2023/10/08 02:18:30;;;;;;;6.90;4.50;;;;;;;11.83;91.21;97187.30;110126;1244;71664;-59
2023/10/08 02:21:05;;;;;;;7.00;4.70;;;;;;;11.91;91.17;97188.43;110119;1244;69278;-59
2023/10/08 02:23:39;;;;;;;6.60;4.20;;;;;;;11.99;90.04;97183.42;110126;1241;68340;-60
2023/10/08 02:26:14;;;;;;;5.90;4.40;;;;;;;12.01;92.07;97184.61;110059;1241;60533;-61
2023/10/08 02:28:45;;;;;;;6.20;5.00;;;;;;;12.01;93.06;97170.31;110090;1244;60480;-59
2023/10/08 02:31:18;;;;;;;7.50;4.20;;;;;;;11.99;94.78;97174.49;110090;1243;70818;-60
2023/10/08 02:33:51;;;;;;;6.80;4.20;;;;;;;11.97;95.58;97170.95;110086;1244;68843;-60
2023/10/08 02:36:23;;;;;;;6.90;4.60;;;;;;;11.97;93.93;97162.09;110115;1245;68665;-59
2023/10/08 02:38:55;;;;;;;6.20;4.30;;;;;;;11.96;93.91;97162.69;110103;1244;60485;-59
2023/10/08 02:41:28;;;;;;;6.80;4.80;;;;;;;11.94;96.12;97161.45;110033;1241;60496;-59
2023/10/08 02:43:59;;;;;;;6.80;4.60;;;;;;;11.93;97.50;97159.80;110138;1241;71458;-62
2023/10/08 02:46:33;;;;;;;6.70;4.30;;;;;;;11.91;98.55;97156.95;110014;1244;69100;-60
2023/10/08 02:49:06;;;;;;;8.40;5.30;;;;;;;11.90;98.02;97156.05;110124;1244;69234;-61
2023/10/08 02:51:39;;;;;;;5.70;4.60;;;;;;;11.88;95.00;97150.41;110107;1244;60935;-61
2023/10/08 02:54:16;;;;;;;7.30;4.20;;;;;;;11.88;96.03;97146.63;110158;1241;60544;-61
2023/10/08 02:56:55;;;;;;;5.70;4.10;;;;;;;11.88;91.79;97137.86;110160;1241;72206;-60
2023/10/08 02:59:40;;;;;;;5.60;4.10;;;;;;;11.87;91.70;97138.84;110135;1241;69282;-59
2023/10/08 03:02:21;;;;;;;7.70;4.90;;;;;;;11.86;96.32;97141.36;110102;1243;69550;-59
2023/10/08 03:04:54;;;;;;;6.40;4.70;;;;;;;11.85;93.25;97127.96;110097;1244;60561;-62
2023/10/08 03:07:35;;;;;;;7.00;4.20;;;;;;;11.85;95.36;97130.11;110122;1241;60504;-62
2023/10/08 03:10:17;;;;;;;5.80;3.50;;;;;;;11.84;92.68;97125.77;110134;1244;72150;-61
2023/10/08 03:12:49;;;;;;;6.80;4.90;;;;;;;11.83;98.08;97123.59;109859;1241;67769;-61
2023/10/08 03:15:38;;;;;;;5.40;4.10;;;;;;;11.84;97.00;97117.63;109913;1244;69385;-61
2023/10/08 03:18:14;;;;;;;7.20;4.70;;;;;;;11.83;95.13;97107.35;110081;1244;60523;-60
2023/10/08 03:20:49;;;;;;;6.00;4.20;;;;;;;11.83;93.26;97109.10;110027;1244;60515;-60
2023/10/08 03:23:23;;;;;;;6.80;4.50;;;;;;;11.83;97.79;97111.06;110130;1244;72220;-60
2023/10/08 03:26:10;;;;;;;6.10;4.00;;;;;;;11.83;96.89;97111.73;110114;1244;69172;-60
2023/10/08 03:28:44;;;;;;;5.50;3.70;;;;;;;11.83;99.18;97115.06;109819;1244;69111;-60
2023/10/08 03:31:17;;;;;;;5.00;4.10;;;;;;;11.81;99.43;97116.73;110043;1244;60469;-60
2023/10/08 03:33:51;;;;;;;6.60;4.40;;;;;;;11.82;98.15;97116.89;110072;1244;60482;-59
2023/10/08 03:36:33;;;;;;;5.20;3.80;;;;;;;11.80;97.14;97112.63;110093;1244;71809;-60
2023/10/08 03:39:12;;;;;;;6.00;3.70;;;;;;;11.81;97.26;97113.07;110099;1244;69304;-59
2023/10/08 03:41:59;;;;;;;6.70;4.00;;;;;;;11.83;97.01;97113.32;110094;1244;70114;-60
2023/10/08 03:44:31;;;;;;;5.20;3.40;;;;;;;11.85;96.45;97115.59;110109;1244;60554;-60
2023/10/08 03:47:10;;;;;;;6.90;4.00;;;;;;;11.86;96.04;97109.69;110055;1244;60446;-59
2023/10/08 03:49:45;;;;;;;5.60;3.60;;;;;;;11.89;97.65;97107.42;110120;1241;71426;-60
2023/10/08 03:52:25;;;;;;;7.60;3.70;;;;;;;11.90;98.55;97103.30;110081;1243;69391;-60
2023/10/08 03:57:56;;;;;;;6.00;4.30;;;;;;;11.84;97.51;97094.23;110109;1241;60683;-60
2023/10/08 04:00:31;;;;;;;6.70;4.30;;;;;;;11.77;94.84;97091.13;110091;1244;60482;-60
2023/10/08 04:03:07;;;;;;;10.80;5.10;;;;;;;11.70;94.81;97087.10;110105;1244;72808;-60
2023/10/08 04:08:43;;;;;;;10.20;6.10;;;;;;;11.59;94.62;97089.77;110041;1244;69114;-60
2023/10/08 04:11:30;;;;;;;14.30;7.30;;;;;;;11.52;93.95;97082.27;110109;1244;60447;-60
2023/10/08 04:14:02;;;;;;;14.70;8.30;;;;;;;11.44;94.12;97085.19;110111;1241;60524;-59
2023/10/08 04:16:37;;;;;;;20.00;9.80;;;;;;;11.38;93.77;97085.36;110083;1244;71613;-59
2023/10/08 04:19:08;;;;;;;14.00;8.20;;;;;;;11.32;93.59;97085.48;110079;1244;69871;-60
2023/10/08 04:21:42;;;;;;;14.40;7.90;;;;;;;11.27;95.47;97086.08;110041;1244;69298;-59
2023/10/08 04:24:14;;;;;;;11.10;7.00;;;;;;;11.22;96.34;97088.91;110082;1241;60549;-59
2023/10/08 04:26:45;;;;;;;10.80;6.50;;;;;;;11.17;95.42;97090.66;110076;1242;60507;-59
2023/10/08 04:29:16;;;;;;;10.30;6.80;;;;;;;11.16;98.17;97086.47;110058;1244;72693;-61
2023/10/08 04:32:00;;;;;;;8.40;5.60;;;;;;;11.12;98.49;97084.12;110100;1244;68501;-61
2023/10/08 04:34:33;;;;;;;9.20;5.40;;;;;;;11.11;96.74;97082.46;110094;1241;68746;-60
2023/10/08 04:37:11;;;;;;;8.10;5.40;;;;;;;11.14;97.03;97089.23;110020;1242;60507;-60
2023/10/08 04:39:47;;;;;;;8.80;5.90;;;;;;;11.16;94.80;97090.41;110103;1243;60486;-60
2023/10/08 04:42:25;;;;;;;7.60;5.20;;;;;;;11.19;95.10;97089.48;110067;1244;72792;-60
2023/10/08 04:44:58;;;;;;;9.30;6.20;;;;;;;11.25;98.39;97082.73;110096;1243;68749;-59
2023/10/08 04:47:31;;;;;;;7.30;5.00;;;;;;;11.30;94.35;97081.52;109879;1244;69337;-60
2023/10/08 04:50:06;;;;;;;6.60;4.60;;;;;;;11.35;93.88;97087.55;110070;1243;60487;-59
2023/10/08 04:52:45;;;;;;;7.00;5.00;;;;;;;11.39;94.56;97084.42;110075;1241;60547;-59
2023/10/08 04:55:20;;;;;;;9.30;6.20;;;;;;;11.43;94.68;97076.71;110105;1244;72793;-60
2023/10/08 04:57:49;;;;;;;10.30;6.50;;;;;;;11.46;93.11;97070.21;110057;1244;69878;-60
2023/10/08 05:00:40;;;;;;;12.40;8.80;;;;;;;11.49;95.22;97068.73;110061;1242;69254;-60
2023/10/08 05:03:14;;;;;;;13.00;7.10;;;;;;;11.51;99.46;97065.30;110091;1241;60521;-60
2023/10/08 05:06:07;;;;;;;11.10;6.60;;;;;;;11.52;98.40;97068.84;110076;1243;60534;-60
2023/10/08 05:08:58;;;;;;;9.30;6.40;;;;;;;11.54;99.37;97065.86;110085;1241;71443;-60
2023/10/08 05:11:46;;;;;;;9.30;5.70;;;;;;;11.54;98.98;97058.42;110077;1242;67565;-59
2023/10/08 05:14:38;;;;;;;9.50;6.20;;;;;;;11.57;99.76;97051.04;110043;1244;69777;-60
2023/10/08 05:19:48;;;;;;;11.10;6.60;;;;;;;11.62;97.64;97051.27;110011;1244;60490;-61
2023/10/08 05:22:29;;;;;;;8.30;5.50;;;;;;;11.65;99.95;97053.11;110077;1245;70298;-60
2023/10/08 05:25:24;;;;;;;9.00;6.10;;;;;;;11.68;99.27;97052.13;110131;1244;69850;-61
2023/10/08 05:27:56;;;;;;;8.30;6.00;;;;;;;11.72;98.91;97049.55;110071;1242;69189;-61
2023/10/08 05:30:41;;;;;;;8.30;5.50;;;;;;;11.76;100.00;97049.14;110093;1244;60520;-60
2023/10/08 05:38:23;;;;;;;7.50;5.10;;;;;;;11.84;98.10;97042.17;110125;1244;69799;-59
2023/10/08 05:57:24;;;;;;;6.40;4.20;;;;;;;12.20;94.05;97029.70;110096;1243;60550;-60
2023/10/08 06:05:20;;;;;;;6.80;4.90;;;;;;;12.39;91.54;97032.75;110068;1243;69253;-61
2023/10/08 06:13:29;;;;;;;7.10;5.10;;;;;;;12.41;100.00;97044.83;110104;1244;60482;-59
2023/10/08 06:18:31;;;;;;;6.90;5.40;;;;;;;12.41;99.88;97037.80;110083;1241;69802;-60
2023/10/08 06:21:08;;;;;;;6.80;5.30;;;;;;;12.45;99.06;97044.16;110069;1244;69305;-60
2023/10/08 06:23:41;;;;;;;6.40;4.60;;;;;;;12.49;99.48;97046.55;110111;1244;60563;-61
2023/10/08 06:28:43;;;;;;;7.70;4.50;;;;;;;12.53;100.00;97037.83;110115;1242;72173;-60
2023/10/08 06:31:16;;;;;;;9.00;6.40;;;;;;;12.55;96.72;97028.23;110112;1244;69823;-59
2023/10/08 06:33:45;;;;;;;13.10;7.70;;;;;;;12.56;95.80;97017.98;110089;1243;68479;-60
2023/10/08 06:36:15;;;;;;;11.90;9.90;;;;;;;12.56;95.61;97015.88;110103;1243;60530;-60
2023/10/08 06:38:49;;;;;;;9.80;8.00;;;;;;;12.58;96.03;97014.71;110088;1244;60474;-60
2023/10/08 06:41:18;;;;;;;10.40;7.00;;;;;;;12.62;97.05;97021.50;110101;1244;72788;-61
2023/10/08 06:44:14;;;;;;;10.50;7.70;;;;;;;12.69;99.81;97024.38;110053;1244;69799;-59
2023/10/08 06:46:44;;;;;;;11.70;8.00;;;;;;;12.79;99.69;97029.51;110095;1244;69266;-59
2023/10/08 06:49:13;;;;;;;;;;;;;;;12.89;99.10;97036.82;110068;1243;60528;-59
2023/10/08 06:51:43;;;;;;;11.20;7.10;;;;;;;12.97;99.07;97035.77;110063;1244;60534;-60
2023/10/08 06:54:17;;;;;;;8.70;6.10;;;;;;;13.04;96.21;97033.52;110094;1242;71518;-60
2023/10/08 06:56:51;;;;;;;10.90;6.80;;;;;;;13.11;95.99;97028.06;110102;1244;69175;-60
2023/10/08 06:59:25;;;;;;;8.00;5.10;;;;;;;13.16;98.24;97032.99;110031;1244;69312;-59
2023/10/08 07:01:55;;;;;;;8.00;5.20;;;;;;;13.25;94.77;97031.02;110093;1243;60565;-61
2023/10/08 07:04:24;;;;;;;8.30;5.20;;;;;;;13.32;94.76;97028.77;110078;1242;60505;-59
2023/10/08 07:06:54;;;;;;;;;;;;;;;13.38;94.74;97030.00;110055;1241;72172;-60
2023/10/08 07:09:28;;;;;;;7.00;4.70;;;;;;;13.44;93.32;97038.45;110077;1242;69819;-60
2023/10/08 07:12:05;;;;;;;7.20;4.40;;;;;;;13.46;91.72;97040.46;110061;1244;69311;-59
2023/10/08 07:14:35;;;;;;;6.40;4.30;;;;;;;13.48;91.69;97034.05;110061;1244;60527;-60
2023/10/08 07:17:08;;;;;;;6.30;4.60;;;;;;;13.49;91.25;97036.16;110096;1241;60478;-60
2023/10/08 07:19:37;;;;;;;6.60;4.40;;;;;;;13.53;90.79;97033.25;110141;1241;72943;-62
2023/10/08 07:22:28;;;;;;;5.60;4.10;;;;;;;13.56;90.80;97035.45;110166;1244;69856;-61
2023/10/08 07:24:59;;;;;;;7.60;5.00;;;;;;;13.60;91.38;97040.81;110103;1243;69859;-61
2023/10/08 07:27:31;;;;;;;12.10;7.90;;;;;;;13.62;92.40;97043.94;110156;1244;60486;-61
2023/10/08 07:30:10;;;;;;;12.90;8.90;;;;;;;13.61;93.80;97040.33;110104;1244;60486;-60
2023/10/08 07:32:39;;;;;;;15.20;12.30;;;;;;;13.59;93.78;97033.05;110182;1242;71212;-59
2023/10/08 07:35:24;;;;;;;17.10;10.90;;;;;;;13.55;93.13;97028.86;110161;1244;69685;-62
2023/10/08 07:37:54;;;;;;;13.90;10.10;;;;;;;13.52;95.88;97030.81;110149;1243;69293;-60
2023/10/08 07:40:29;;;;;;;16.80;9.70;;;;;;;13.52;97.94;97033.86;109987;1244;60547;-60
2023/10/08 07:43:08;;;;;;;16.00;10.20;;;;;;;13.50;96.14;97030.69;110125;1244;60515;-60
2023/10/08 07:45:37;;;;;;;12.70;9.60;;;;;;;13.48;95.33;97027.00;110008;1241;72198;-60
2023/10/08 07:48:09;;;;;;;12.20;8.70;;;;;;;13.49;94.18;97022.20;110068;1242;69207;-61
2023/10/08 07:50:45;;;;;;;10.20;8.00;;;;;;;13.53;92.42;97023.79;110094;1242;69058;-60
2023/10/08 07:53:17;;;;;;;12.40;8.90;;;;;;;13.54;94.42;97017.86;110013;1242;60540;-60
2023/10/08 07:55:48;;;;;;;10.50;8.70;;;;;;;13.57;94.38;97027.61;110082;1241;60587;-60
2023/10/08 07:58:18;;;;;;;12.50;8.70;;;;;;;13.61;95.36;97025.48;110155;1244;72041;-61
2023/10/08 08:00:53;;;;;;;9.70;8.60;;;;;;;13.67;93.70;97015.50;110162;1244;69802;-61
2023/10/08 08:03:24;;;;;;;12.70;8.50;;;;;;;13.76;94.12;97023.41;110123;1244;69360;-59
2023/10/08 08:05:53;;;;;;;9.90;8.50;;;;;;;13.84;91.94;97021.10;110174;1244;60504;-61
2023/10/08 08:08:27;;;;;;;10.40;8.00;;;;;;;13.91;90.55;97018.69;110133;1243;60495;-61
2023/10/08 08:11:03;;;;;;;9.80;7.80;;;;;;;13.97;91.20;97014.14;110157;1243;72291;-61
2023/10/08 08:13:36;;;;;;;10.40;8.30;;;;;;;13.99;90.94;97010.36;110122;1244;69155;-59
2023/10/08 08:16:17;;;;;;;10.50;7.10;;;;;;;14.02;89.64;97005.61;110084;1241;69842;-59
2023/10/08 08:19:00;;;;;;;8.30;7.10;;;;;;;14.06;88.94;97006.59;110100;1242;60812;-60
2023/10/08 08:21:30;;;;;;;9.10;5.90;;;;;;;14.11;89.82;97004.75;110116;1241;60537;-60
2023/10/08 08:24:05;;;;;;;7.70;6.40;;;;;;;14.14;90.84;97004.13;110154;1244;71458;-60
2023/10/08 08:26:50;;;;;;;7.20;5.50;;;;;;;14.18;89.07;97003.15;110148;1242;67360;-60
2023/10/08 08:29:20;;;;;;;10.90;6.90;;;;;;;14.29;91.38;96997.65;110142;1244;69068;-60
2023/10/08 08:31:53;;;;;;;8.60;5.90;;;;;;;14.40;88.53;96997.08;110140;1241;60517;-60
2023/10/08 08:34:23;;;;;;;8.50;6.40;;;;;;;14.54;87.99;96993.34;110144;1244;60492;-60
2023/10/08 08:36:53;;;;;;;8.20;6.90;;;;;;;14.68;87.71;96987.61;110112;1243;72142;-60
2023/10/08 08:39:32;;;;;;;10.10;7.10;;;;;;;14.83;86.39;96978.10;110132;1241;69822;-61
2023/10/08 08:42:06;;;;;;;10.40;8.00;;;;;;;15.03;85.75;96969.48;110163;1244;69736;-61
2023/10/08 08:44:45;;;;;;;12.70;9.00;;;;;;;15.58;85.11;96975.66;110123;1244;60469;-61
2023/10/08 08:47:18;;;;;;;12.50;9.50;;;;;;;16.44;82.82;96980.05;110133;1244;60421;-61
2023/10/08 08:49:50;;;;;;;10.20;8.40;;;;;;;17.37;81.03;96983.37;110133;1241;72155;-60
2023/10/08 08:52:19;;;;;;;12.70;9.60;;;;;;;17.89;81.06;96989.06;110151;1241;69676;-60
2023/10/08 08:54:48;;;;;;;12.50;8.50;;;;;;;18.11;75.03;96989.91;110141;1244;69179;-60
2023/10/08 08:57:20;;;;;;;11.70;7.50;;;;;;;18.21;76.50;96988.35;110123;1244;60550;-61
2023/10/08 08:59:58;;;;;;;10.20;7.20;;;;;;;18.16;74.37;96982.84;110082;1242;60624;-60
2023/10/08 09:02:28;;;;;;;9.30;6.70;;;;;;;18.05;71.57;96983.35;110106;1241;72490;-60
2023/10/08 09:04:57;;;;;;;9.00;6.30;;;;;;;17.91;69.90;96986.38;110082;1242;68724;-59
2023/10/08 09:07:26;;;;;;;11.50;7.30;;;;;;;17.85;71.88;96989.84;109644;1243;605011;-60
2023/10/08 09:09:57;;;;;;;10.30;6.30;;;;;;;17.77;71.40;96991.37;110079;1244;60491;-60
2023/10/08 09:12:26;;;;;;;10.90;6.60;;;;;;;17.71;71.91;96990.64;110091;1244;60745;-59
2023/10/08 09:15:02;;;;;;;10.30;6.70;;;;;;;17.62;69.31;96986.48;110073;1241;72747;-60
2023/10/08 09:17:33;;;;;;;8.40;6.50;;;;;;;17.61;71.22;96971.80;110084;1243;68274;-60
2023/10/08 09:20:06;;;;;;;8.80;6.80;;;;;;;17.66;70.75;96963.61;110079;1243;69856;-60
2023/10/08 09:22:36;;;;;;;8.90;6.00;;;;;;;17.63;69.36;96971.75;110058;1242;60484;-61
2023/10/08 09:25:07;;;;;;;9.40;6.10;;;;;;;17.64;69.05;96979.02;110061;1241;60530;-60
2023/10/08 09:27:37;;;;;;;7.20;5.80;;;;;;;17.61;68.81;96986.18;110103;1242;72761;-60
2023/10/08 09:30:08;;;;;;;8.70;5.80;;;;;;;17.50;66.18;96989.98;110090;1246;69781;-60
2023/10/08 09:32:39;;;;;;;7.80;5.80;;;;;;;17.41;65.26;96997.90;110057;1244;69866;-60
2023/10/08 09:35:13;;;;;;;7.90;5.30;;;;;;;17.40;66.74;96997.88;110087;1241;60523;-60
2023/10/08 09:37:44;;;;;;;7.50;5.00;;;;;;;17.41;68.49;97002.45;110136;1242;60442;-60
2023/10/08 09:40:20;;;;;;;8.10;5.40;;;;;;;17.36;68.20;97002.48;110102;1244;72776;-59
2023/10/08 09:42:51;;;;;;;7.80;5.90;;;;;;;17.24;67.01;97003.70;110049;1244;69804;-60
2023/10/08 09:45:21;;;;;;;9.20;6.10;;;;;;;17.18;68.03;97001.58;110046;1243;69181;-59
2023/10/08 09:47:54;;;;;;;11.80;6.00;;;;;;;16.99;68.66;97006.77;110091;1243;60541;-62
2023/10/08 09:50:34;;;;;;;8.60;5.80;;;;;;;16.90;69.37;97008.55;110103;1244;60571;-60
2023/10/08 09:53:19;;;;;;;11.50;6.80;;;;;;;16.75;69.59;97001.27;110024;1242;72213;-59
2023/10/08 09:55:56;;;;;;;11.90;5.80;;;;;;;16.70;70.62;97002.69;110065;1242;69236;-60
2023/10/08 09:58:28;;;;;;;9.50;6.30;;;;;;;16.64;71.00;96998.67;110051;1244;69827;-62
2023/10/08 10:00:58;;;;;;;11.70;6.30;;;;;;;16.57;71.06;96991.61;110002;1244;60504;-61
2023/10/08 10:03:27;;;;;;;9.50;6.40;;;;;;;16.49;71.39;96986.60;110172;1244;60444;-61
2023/10/08 10:05:59;;;;;;;11.50;6.60;;;;;;;16.38;72.85;96986.73;110122;1241;72154;-61
2023/10/08 10:08:35;;;;;;;12.00;7.10;;;;;;;16.23;74.28;96982.03;110122;1243;69862;-60
2023/10/08 10:11:06;;;;;;;9.90;6.10;;;;;;;16.03;78.18;96987.42;110093;1245;69628;-60
2023/10/08 10:13:44;;;;;;;7.80;5.60;;;;;;;15.85;81.57;96992.41;110051;1245;60848;-61
2023/10/08 10:16:18;;;;;;;6.80;4.70;;;;;;;15.84;80.76;96997.11;110122;1245;60493;-60
2023/10/08 10:18:49;;;;;;;6.70;4.40;;;;;;;15.81;80.76;96992.33;110110;1244;72803;-60
2023/10/08 10:21:18;;;;;;;7.60;4.20;;;;;;;15.79;79.16;96989.73;110128;1244;69782;-60
2023/10/08 10:23:50;;;;;;;5.10;4.10;;;;;;;15.76;80.75;96988.08;110103;1245;68542;-61
2023/10/08 10:26:40;;;;;;;6.20;4.30;;;;;;;15.74;79.92;96984.89;110112;1244;60760;-61
2023/10/08 10:29:15;;;;;;;7.70;4.70;;;;;;;15.72;80.85;96986.75;110114;1242;60487;-60
2023/10/08 10:31:47;;;;;;;7.30;4.80;;;;;;;15.70;79.12;96983.18;110079;1244;72106;-60
2023/10/08 10:34:18;;;;;;;8.60;5.60;;;;;;;15.65;80.08;96981.95;110146;1244;69203;-60
2023/10/08 10:36:50;;;;;;;9.10;6.00;;;;;;;15.57;81.21;96981.48;110114;1244;69329;-60
2023/10/08 10:39:26;;;;;;;10.70;6.40;;;;;;;15.58;79.85;96977.74;110081;1244;60571;-60
2023/10/08 10:41:57;;;;;;;9.10;6.10;;;;;;;15.57;81.09;96977.66;110115;1242;60522;-60
2023/10/08 10:44:26;;;;;;;7.40;5.30;;;;;;;15.55;83.31;96974.71;110123;1242;71959;-60
2023/10/08 10:49:53;;;;;;;7.60;5.20;;;;;;;15.51;86.33;96968.23;110053;1244;69312;-59
2023/10/08 10:52:32;;;;;;;6.50;4.70;;;;;;;15.48;86.67;96973.58;110142;1244;60438;-61
2023/10/08 10:58:11;;;;;;;8.00;5.80;;;;;;;15.44;83.82;96963.01;110157;1244;72103;-59
2023/10/08 11:03:16;;;;;;;7.20;5.90;;;;;;;15.33;85.32;96963.61;110060;1241;69351;-60
2023/10/08 11:05:51;;;;;;;9.20;6.10;;;;;;;15.29;86.20;96966.38;110110;1244;60519;-61
2023/10/08 11:08:24;;;;;;;7.60;5.50;;;;;;;15.32;86.83;96964.74;110158;1244;60505;-61
2023/10/08 11:10:58;;;;;;;7.90;4.90;;;;;;;15.32;86.36;96966.86;110066;1241;72777;-60
2023/10/08 11:13:37;;;;;;;6.50;4.60;;;;;;;15.32;85.31;96978.77;110124;1244;69911;-60
2023/10/08 11:16:09;;;;;;;8.70;6.10;;;;;;;15.26;84.65;96976.13;110067;1244;68422;-61
2023/10/08 11:18:46;;;;;;;9.40;6.00;;;;;;;15.30;82.12;96977.67;110119;1244;60475;-61
2023/10/08 11:21:16;;;;;;;9.20;4.90;;;;;;;15.43;80.62;96978.55;110126;1244;60548;-61
2023/10/08 11:24:08;;;;;;;;;;;;;;;15.55;79.80;96981.76;110118;1244;72141;-60
2023/10/08 11:26:39;;;;;;;5.80;3.90;;;;;;;15.70;78.20;96978.66;110156;1241;69423;-60
2023/10/08 11:29:14;;;;;;;;;;;;;;;15.83;77.93;96976.71;110124;1243;69851;-60
2023/10/08 11:31:44;;;;;;;6.00;3.30;;;;;;;15.94;76.47;96972.60;110092;1242;60587;-60
2023/10/08 11:34:13;;;;;;;7.00;3.30;;;;;;;16.04;75.53;96968.94;110102;1243;60540;-60
2023/10/08 11:36:49;;;;;;;5.20;3.00;;;;;;;16.17;74.61;96967.59;110138;1244;71480;-61
2023/10/08 11:39:21;;;;;;;7.20;3.20;;;;;;;16.25;74.30;96966.35;110119;1246;68410;-60
2023/10/08 11:42:06;;;;;;;6.50;3.20;;;;;;;16.33;73.36;96961.17;110138;1244;69905;-61
2023/10/08 11:44:36;;;;;;;6.20;3.60;;;;;;;16.43;73.31;96953.50;110092;1244;60475;-61
2023/10/08 11:47:13;;;;;;;5.00;3.40;;;;;;;16.50;72.98;96959.82;110110;1242;60442;-61
2023/10/08 11:50:08;;;;;;;5.90;3.00;;;;;;;16.53;71.64;96968.05;110099;1241;72774;-61
2023/10/08 11:52:44;;;;;;;5.70;3.20;;;;;;;16.63;72.03;96963.00;110104;1244;69750;-60
2023/10/08 11:55:18;;;;;;;5.10;2.90;;;;;;;16.67;71.52;96965.33;110068;1244;68375;-60
2023/10/08 11:57:50;;;;;;;5.80;2.90;;;;;;;16.74;71.28;96964.63;110079;1244;60506;-61
2023/10/08 12:00:19;;;;;;;5.10;2.90;;;;;;;16.81;71.38;96961.17;110065;1244;60502;-59
2023/10/08 12:02:54;;;;;;;6.40;3.20;;;;;;;16.84;70.92;96965.20;110096;1242;70998;-60
2023/10/08 12:05:24;;;;;;;5.70;2.90;;;;;;;16.86;70.85;96969.37;110099;1244;69204;-61
2023/10/08 12:07:57;;;;;;;6.20;2.90;;;;;;;16.90;70.88;96972.84;110113;1243;69271;-60
2023/10/08 12:10:26;;;;;;;6.90;2.90;;;;;;;16.89;70.87;96978.59;110091;1244;60489;-61
2023/10/08 12:12:55;;;;;;;6.10;3.30;;;;;;;16.86;70.66;96989.20;110124;1244;60448;-61
2023/10/08 12:15:34;;;;;;;8.50;3.50;;;;;;;16.80;70.68;96986.41;110110;1243;72477;-61
2023/10/08 12:18:11;;;;;;;6.40;3.30;;;;;;;16.78;70.60;96980.20;110093;1242;69567;-61
2023/10/08 12:20:45;;;;;;;5.70;3.60;;;;;;;16.81;71.08;96979.58;110050;1244;69877;-61
2023/10/08 12:23:51;;;;;;;6.20;3.10;;;;;;;16.81;70.47;96977.67;110098;1243;60478;-60
2023/10/08 12:26:11;;;;;;;7.20;2.80;;;;;;;16.87;70.89;96978.28;110137;1243;60438;-60
2023/10/08 12:28:40;;;;;;;6.50;3.30;;;;;;;16.94;70.94;96978.69;110077;1244;71291;-60
2023/10/08 12:31:10;;;;;;;6.00;2.90;;;;;;;17.03;70.92;96991.54;110097;1244;68364;-60
2023/10/08 12:33:40;;;;;;;6.50;3.20;;;;;;;17.08;71.11;97007.02;110109;1242;69704;-60
2023/10/08 12:36:13;;;;;;;;;;;;;;;16.91;72.21;97011.80;110100;1244;60523;-62
2023/10/08 12:38:44;;;;;;;6.00;2.90;;;;;;;16.83;73.31;97022.91;110091;1244;60500;-60
2023/10/08 12:41:13;;;;;;;;;;;;;;;16.74;74.32;97032.02;110094;1244;72509;-60
2023/10/08 12:43:52;;;;;;;8.40;3.20;;;;;;;16.63;74.60;97041.58;110081;1244;69747;-60
2023/10/08 12:46:25;;;;;;;4.80;2.80;;;;;;;16.39;75.69;97043.42;110079;1245;68950;-60
2023/10/08 12:48:54;;;;;;;3.70;2.20;;;;;;;16.27;76.04;97042.70;110027;1248;60509;-60
2023/10/08 12:51:25;;;;;;;;;;;;;;;16.20;76.47;97053.35;110129;1244;60450;-60
2023/10/08 12:54:33;;;;;;;5.10;2.00;;;;;;;16.06;77.84;97058.03;110093;1243;71429;-60
2023/10/08 12:56:49;;;;;;;4.70;2.00;;;;;;;15.95;77.92;97066.29;110030;1241;69849;-60
2023/10/08 12:59:21;;;;;;;5.00;2.10;;;;;;;15.80;78.60;97065.52;110138;1241;70263;-60